Time;durP1;ratioP1;P1;durP2;ratioP2;P2;SDS_P1;SDS_P2;PMS_P1;PMS_P2;Temp;Humidity;BMP_temperature;BMP_pressure;BME280_temperature;BME280_humidity;BME280_pressure;Samples;Min_cycle;Max_cycle;Signal;HPM_P1;HPM_P2
2020/12/05 00:00:33;;;;;;;33.73;25.90;;;1.20;99.90;;;2.19;86.89;95387.81;5252073;28;20585;-77
2020/12/05 00:03:05;;;;;;;36.07;27.30;;;1.20;99.90;;;2.10;86.89;95390.75;5251254;28;20257;-77
2020/12/05 00:05:41;;;;;;;34.20;25.43;;;1.10;99.90;;;1.99;87.42;95409.50;5251177;28;20308;-79
2020/12/05 00:08:13;;;;;;;35.70;27.37;;;1.10;99.90;;;1.92;87.63;95430.16;5246137;28;20215;-78
2020/12/05 00:10:45;;;;;;;32.20;27.07;;;1.00;99.90;;;1.92;87.28;95441.06;5250985;28;20194;-78
2020/12/05 00:13:17;;;;;;;31.50;25.77;;;0.90;99.90;;;1.78;87.87;95430.31;5233216;28;20728;-78
2020/12/05 00:15:49;;;;;;;30.07;25.57;;;1.00;99.90;;;1.77;87.70;95415.09;5244813;28;20203;-79
2020/12/05 00:18:21;;;;;;;37.47;28.43;;;1.00;99.90;;;1.73;87.32;95398.97;5250230;28;20197;-77
2020/12/05 00:20:54;;;;;;;36.47;29.47;;;0.90;99.90;;;1.67;87.47;95400.34;5251711;28;20201;-80
2020/12/05 00:23:26;;;;;;;45.27;35.93;;;0.80;99.90;;;1.54;87.77;95387.09;5250610;28;20234;-80
2020/12/05 00:25:58;;;;;;;38.70;31.47;;;0.70;99.90;;;1.51;88.58;95402.06;5250107;28;20221;-79
2020/12/05 00:28:30;;;;;;;41.27;30.30;;;0.70;99.90;;;1.51;88.05;95396.16;5250834;28;20213;-79
2020/12/05 00:31:02;;;;;;;37.37;29.40;;;0.70;99.90;;;1.56;88.63;95404.81;5249390;28;20198;-79
2020/12/05 00:33:35;;;;;;;36.97;27.77;;;0.80;99.90;;;1.58;88.57;95419.22;5250872;28;20607;-79
2020/12/05 00:36:08;;;;;;;38.17;29.30;;;0.70;99.90;;;1.59;88.02;95415.03;5250617;28;20210;-79
2020/12/05 00:38:40;;;;;;;41.43;29.70;;;0.70;99.90;;;1.52;87.92;95416.38;5251378;28;20197;-78
2020/12/05 00:41:18;;;;;;;37.40;27.83;;;0.70;99.90;;;1.54;87.75;95416.44;5240525;28;20200;-79
2020/12/05 00:43:50;;;;;;;35.93;26.43;;;0.70;99.90;;;1.58;88.07;95415.84;5247746;28;20222;-79
2020/12/05 00:46:22;;;;;;;34.43;27.50;;;0.70;99.90;;;1.57;88.16;95402.41;5241830;28;20225;-79
2020/12/05 00:48:54;;;;;;;33.87;26.70;;;0.80;99.90;;;1.64;88.46;95390.13;5250768;28;20558;-79
2020/12/05 00:51:26;;;;;;;37.13;27.23;;;0.90;99.90;;;1.65;88.18;95395.22;5249352;28;20294;-78
2020/12/05 00:53:59;;;;;;;42.47;31.67;;;0.80;99.90;;;1.62;88.65;95400.09;5249804;28;20259;-80
2020/12/05 00:56:31;;;;;;;39.23;30.20;;;0.80;99.90;;;1.61;87.92;95392.47;5251175;28;20196;-79
2020/12/05 00:59:03;;;;;;;35.53;26.53;;;0.80;99.90;;;1.67;88.32;95383.56;5250640;28;20298;-79
2020/12/05 01:01:35;;;;;;;38.63;27.97;;;0.90;99.90;;;1.71;88.38;95361.94;5250205;28;20206;-79
2020/12/05 01:04:07;;;;;;;35.70;28.37;;;0.90;99.90;;;1.74;88.24;95352.88;5251433;28;20214;-80
2020/12/05 01:06:40;;;;;;;41.10;29.70;;;1.00;99.90;;;1.87;87.48;95366.09;5250407;28;20223;-79
2020/12/05 01:09:13;;;;;;;35.90;29.00;;;1.00;99.90;;;1.88;88.28;95387.94;5261103;28;20194;-78
2020/12/05 01:11:46;;;;;;;37.43;28.80;;;1.00;99.90;;;1.89;87.80;95397.22;5273468;28;20187;-79
2020/12/05 01:14:18;;;;;;;35.77;28.83;;;1.00;99.90;;;1.91;87.41;95398.16;5265320;28;20676;-79
2020/12/05 01:16:50;;;;;;;40.03;28.43;;;1.10;99.90;;;1.87;88.36;95412.28;5255949;28;20192;-79
2020/12/05 01:19:22;;;;;;;36.00;28.37;;;1.10;99.90;;;1.90;88.04;95447.69;5271983;28;20187;-78
2020/12/05 01:21:55;;;;;;;41.63;30.30;;;1.10;99.90;;;2.04;87.44;95466.00;5274011;28;20184;-79
2020/12/05 01:24:27;;;;;;;38.37;29.23;;;1.10;99.90;;;1.99;87.34;95462.38;5272592;28;20206;-78
2020/12/05 01:26:59;;;;;;;35.23;28.10;;;1.20;99.90;;;2.03;87.86;95494.50;5250209;28;20215;-79
2020/12/05 01:29:31;;;;;;;32.10;26.53;;;1.20;99.90;;;2.00;87.72;95509.44;5248462;28;20207;-79
2020/12/05 01:32:03;;;;;;;34.87;28.77;;;1.20;99.90;;;2.04;87.54;95498.75;5248799;28;20580;-78
2020/12/05 01:34:36;;;;;;;35.70;27.10;;;1.20;99.90;;;2.07;87.47;95493.88;5249716;28;20191;-79
2020/12/05 01:37:10;;;;;;;34.97;28.07;;;1.20;99.90;;;2.10;87.79;95501.59;5249495;28;20203;-78
2020/12/05 01:39:42;;;;;;;34.13;26.60;;;1.30;99.90;;;2.10;87.71;95499.06;5249128;28;20185;-77
2020/12/05 01:42:14;;;;;;;37.20;28.57;;;1.30;99.90;;;2.15;87.86;95510.25;5250102;28;20202;-78
2020/12/05 01:44:46;;;;;;;34.37;26.40;;;1.30;99.90;;;2.21;87.71;95518.13;5249585;28;20521;-77
2020/12/05 01:47:20;;;;;;;33.40;28.23;;;1.40;99.90;;;2.20;87.20;95525.59;5249140;28;20226;-78
2020/12/05 01:49:52;;;;;;;35.03;26.80;;;1.40;99.90;;;2.22;87.50;95517.31;5250280;28;20197;-79
2020/12/05 01:52:25;;;;;;;34.77;26.93;;;1.40;99.90;;;2.24;87.50;95512.38;5249263;28;20222;-79
2020/12/05 01:54:57;;;;;;;33.83;26.80;;;1.40;99.90;;;2.22;87.71;95514.78;5251127;28;20653;-78
2020/12/05 01:57:29;;;;;;;33.27;26.23;;;1.40;99.90;;;2.25;87.57;95514.09;5249935;28;20199;-78
2020/12/05 02:00:01;;;;;;;33.00;26.60;;;1.40;99.90;;;2.30;87.61;95542.06;5250433;28;20208;-78
2020/12/05 02:02:33;;;;;;;33.83;27.07;;;1.40;99.90;;;2.32;87.27;95545.50;5248253;28;20216;-79
2020/12/05 02:05:13;;;;;;;33.07;26.47;;;1.40;99.90;;;2.34;87.34;95554.88;5250351;28;20205;-79
2020/12/05 02:07:54;;;;;;;32.00;26.67;;;1.40;99.90;;;2.34;87.57;95551.47;5248276;28;20214;-79
2020/12/05 02:10:29;;;;;;;33.50;26.97;;;1.40;99.90;;;2.33;87.14;95539.69;5250622;28;20595;-78
2020/12/05 02:13:08;;;;;;;30.73;25.47;;;1.40;99.90;;;2.29;87.66;95552.91;5249303;28;20349;-78
2020/12/05 02:15:44;;;;;;;30.70;25.63;;;1.40;99.90;;;2.28;87.55;95552.03;5249718;28;20704;-79
2020/12/05 02:18:17;;;;;;;32.43;27.77;;;1.40;99.90;;;2.31;87.71;95536.22;5249033;28;20281;-78
2020/12/05 02:20:52;;;;;;;34.03;26.77;;;1.50;99.90;;;2.30;87.57;95542.91;5250087;28;20653;-78
2020/12/05 02:23:25;;;;;;;33.37;26.20;;;1.40;99.90;;;2.28;87.03;95548.66;5251474;28;20723;-79
2020/12/05 02:26:04;;;;;;;32.40;26.97;;;1.40;99.90;;;2.28;86.93;95556.22;5250424;28;20196;-77
2020/12/05 02:28:36;;;;;;;36.63;28.40;;;1.40;99.90;;;2.28;86.72;95569.69;5250578;28;20194;-78
2020/12/05 02:31:11;;;;;;;32.73;26.73;;;1.40;99.90;;;2.28;87.57;95604.09;5250161;28;20292;-79
2020/12/05 02:33:43;;;;;;;32.67;25.73;;;1.40;99.90;;;2.26;87.57;95598.97;5249539;28;20222;-78
2020/12/05 02:36:15;;;;;;;33.93;26.23;;;1.40;99.90;;;2.31;87.52;95610.16;5252231;28;20201;-80
2020/12/05 02:39:05;;;;;;;29.70;25.07;;;1.50;99.90;;;2.35;87.66;95613.72;5253790;28;20201;-79
2020/12/05 02:41:38;;;;;;;34.27;26.77;;;1.50;99.90;;;2.42;86.98;95610.72;5256165;28;20253;-78
2020/12/05 02:44:10;;;;;;;37.03;27.53;;;1.50;99.90;;;2.40;87.54;95617.31;5252683;28;20223;-78
2020/12/05 02:46:48;;;;;;;34.93;26.63;;;1.60;99.90;;;2.46;87.88;95610.06;5255177;28;20226;-78
2020/12/05 02:49:20;;;;;;;34.17;26.87;;;1.60;99.90;;;2.44;87.94;95591.50;5255060;28;20202;-79
2020/12/05 02:51:52;;;;;;;33.47;25.83;;;1.60;99.90;;;2.46;87.81;95602.50;5255135;28;20200;-79
2020/12/05 02:54:24;;;;;;;33.27;27.20;;;1.60;99.90;;;2.53;87.66;95632.31;5256020;28;20712;-79
2020/12/05 02:56:56;;;;;;;31.50;26.27;;;1.70;99.90;;;2.60;86.34;95631.81;5256464;28;20206;-79
2020/12/05 02:59:29;;;;;;;35.13;27.20;;;1.60;99.90;;;2.63;86.68;95651.28;5255637;28;20201;-78
2020/12/05 03:02:02;;;;;;;32.50;26.37;;;1.60;99.90;;;2.59;86.71;95670.44;5255990;28;20273;-79
2020/12/05 03:04:34;;;;;;;35.00;26.93;;;1.60;99.90;;;2.58;87.06;95678.78;5257004;28;20196;-79
2020/12/05 03:07:08;;;;;;;35.77;26.77;;;1.60;99.90;;;2.49;86.91;95678.31;5263510;28;20357;-78
2020/12/05 03:09:41;;;;;;;31.13;24.70;;;1.60;99.90;;;2.46;86.90;95693.25;5235926;28;20279;-78
2020/12/05 03:12:13;;;;;;;30.47;25.63;;;1.60;99.90;;;2.52;87.44;95726.38;5249035;28;20660;-78
2020/12/05 03:14:45;;;;;;;34.03;27.63;;;1.60;99.90;;;2.48;87.04;95737.94;5251041;28;20202;-79
2020/12/05 03:17:17;;;;;;;31.63;25.60;;;1.60;99.90;;;2.44;87.15;95722.59;5250240;28;20199;-77
2020/12/05 03:19:49;;;;;;;31.03;25.27;;;1.50;99.90;;;2.37;87.52;95738.16;5251097;28;20587;-79
2020/12/05 03:22:21;;;;;;;37.17;28.13;;;1.50;99.90;;;2.25;87.23;95749.31;5249681;28;20750;-79
2020/12/05 03:24:54;;;;;;;34.10;27.17;;;1.50;99.90;;;2.21;88.33;95756.63;5250163;28;20576;-78
2020/12/05 03:27:26;;;;;;;36.37;28.00;;;1.50;99.90;;;2.14;88.07;95752.91;5250003;28;20629;-78
2020/12/05 03:29:59;;;;;;;35.93;27.37;;;1.50;99.90;;;2.07;89.11;95753.38;5249145;28;20211;-79
2020/12/05 03:32:31;;;;;;;36.70;28.60;;;1.40;99.90;;;2.00;89.02;95746.22;5246547;28;20220;-78
2020/12/05 03:35:03;;;;;;;36.93;28.73;;;1.40;99.90;;;1.95;89.47;95778.75;5249358;28;20220;-78
2020/12/05 03:37:36;;;;;;;36.57;28.97;;;1.30;99.90;;;1.92;89.24;95773.53;5249707;28;20567;-79
2020/12/05 03:40:09;;;;;;;35.30;26.97;;;1.30;99.90;;;1.85;90.15;95823.47;5249522;28;20194;-79
2020/12/05 03:42:41;;;;;;;40.43;30.87;;;1.20;99.90;;;1.79;90.15;95817.28;5249039;28;20698;-78
2020/12/05 03:45:13;;;;;;;39.47;31.97;;;1.20;99.90;;;1.74;90.06;95825.38;5241757;28;20679;-78
2020/12/05 03:47:45;;;;;;;37.97;28.00;;;1.20;99.90;;;1.67;91.07;95838.41;5248544;28;20217;-79
2020/12/05 03:50:17;;;;;;;41.87;31.87;;;1.10;99.90;;;1.65;90.50;95848.38;5248987;28;20192;-78
2020/12/05 03:52:49;;;;;;;37.40;29.60;;;1.10;99.90;;;1.62;91.09;95833.09;5248984;28;20228;-78
2020/12/05 03:55:22;;;;;;;38.17;29.50;;;1.10;99.90;;;1.61;91.56;95841.44;5248599;28;20197;-79
2020/12/05 03:57:54;;;;;;;39.70;29.23;;;1.10;99.90;;;1.60;91.17;95862.34;5247422;28;20203;-78
2020/12/05 04:00:29;;;;;;;38.80;30.20;;;1.10;99.90;;;1.60;92.00;95824.56;5248965;28;20254;-79
2020/12/05 04:03:01;;;;;;;41.07;31.63;;;1.10;99.90;;;1.62;91.76;95888.47;5249371;28;20214;-78
2020/12/05 04:05:33;;;;;;;40.70;30.57;;;1.10;99.90;;;1.65;91.89;95812.25;5249306;28;20566;-78
2020/12/05 04:08:04;;;;;;;36.43;29.20;;;1.10;99.90;;;1.66;92.42;95836.66;5248891;28;20224;-78
2020/12/05 04:10:37;;;;;;;47.27;33.50;;;1.10;99.90;;;1.62;92.25;95825.53;5249846;28;20196;-79
2020/12/05 04:13:11;;;;;;;42.97;32.83;;;1.10;99.90;;;1.64;92.52;95876.00;5250389;28;20229;-78
2020/12/05 04:15:43;;;;;;;41.53;30.23;;;1.10;99.90;;;1.68;92.87;95882.94;5251364;28;20189;-78
2020/12/05 04:18:16;;;;;;;40.93;31.90;;;1.10;99.90;;;1.68;92.57;95877.91;5248651;28;20710;-78
2020/12/05 04:20:48;;;;;;;38.60;30.60;;;1.20;99.90;;;1.67;92.31;95879.56;5251006;28;20192;-79
2020/12/05 04:23:19;;;;;;;42.53;32.03;;;1.20;99.90;;;1.71;92.82;95886.50;5281873;22;21330;-79
2020/12/05 04:25:52;;;;;;;41.93;30.67;;;1.20;99.90;;;1.68;92.51;95893.88;5274064;28;20212;-79
2020/12/05 04:28:24;;;;;;;45.57;33.63;;;1.20;99.90;;;1.70;92.57;95904.91;5270692;28;20224;-79
2020/12/05 04:30:56;;;;;;;40.07;30.70;;;1.20;99.90;;;1.71;92.42;95916.69;5255473;28;20192;-80
2020/12/05 04:33:28;;;;;;;39.97;30.73;;;1.20;99.90;;;1.69;93.03;95914.88;5269561;28;20224;-79
2020/12/05 04:36:00;;;;;;;40.17;30.80;;;1.20;99.90;;;1.70;92.62;95935.13;5269693;28;20212;-79
2020/12/05 04:38:32;;;;;;;40.07;30.10;;;1.20;99.90;;;1.73;92.30;95925.22;5260584;28;20209;-79
2020/12/05 04:41:05;;;;;;;39.30;31.53;;;1.20;99.90;;;1.78;93.37;95921.34;5265250;28;20206;-79
2020/12/05 04:43:38;;;;;;;42.70;31.37;;;1.20;99.90;;;1.80;93.18;95924.81;5253488;28;20726;-78
2020/12/05 04:46:10;;;;;;;42.17;31.97;;;1.30;99.90;;;1.84;93.12;95927.53;5253214;28;20287;-78
2020/12/05 04:48:43;;;;;;;39.57;29.67;;;1.30;99.90;;;1.86;92.96;95913.34;5252309;28;20223;-78
2020/12/05 04:51:17;;;;;;;35.40;29.33;;;1.30;99.90;;;1.86;93.14;95885.63;5269075;28;20209;-77
2020/12/05 04:53:49;;;;;;;35.30;28.27;;;1.30;99.90;;;1.89;92.88;95855.59;5260437;28;20630;-79
2020/12/05 04:56:28;;;;;;;37.40;27.53;;;1.30;99.90;;;1.89;93.17;95863.16;5270385;28;20213;-79
2020/12/05 04:59:04;;;;;;;32.47;26.70;;;1.30;99.90;;;1.89;93.03;95898.41;5264234;28;20205;-78
2020/12/05 05:01:38;;;;;;;33.77;26.77;;;1.30;99.90;;;1.91;93.52;95922.03;5267749;28;20194;-79
2020/12/05 05:04:10;;;;;;;36.03;28.13;;;1.30;99.90;;;1.90;93.42;95937.94;5257171;28;20219;-79
2020/12/05 05:06:42;;;;;;;44.03;31.53;;;1.30;99.90;;;1.90;93.47;95956.44;5252763;28;20212;-78
2020/12/05 05:09:14;;;;;;;44.77;32.10;;;1.30;99.90;;;1.90;93.12;95953.06;5249761;28;20577;-79
2020/12/05 05:11:56;;;;;;;44.83;33.13;;;1.30;99.90;;;1.88;93.43;95952.97;5260503;28;20667;-78
2020/12/05 05:14:34;;;;;;;42.70;30.40;;;1.30;99.90;;;1.81;93.29;95971.03;5266300;28;20303;-78
2020/12/05 05:17:08;;;;;;;43.97;31.40;;;1.20;99.90;;;1.83;94.09;95976.13;5255305;28;20201;-78
2020/12/05 05:19:40;;;;;;;48.10;32.73;;;1.20;99.90;;;1.84;93.12;95985.44;5267327;28;20326;-79
2020/12/05 05:22:12;;;;;;;42.27;30.53;;;1.20;99.90;;;1.86;93.65;95978.81;5270523;28;20864;-78
2020/12/05 05:25:00;;;;;;;43.60;31.53;;;1.30;99.90;;;1.86;93.93;95964.63;5257261;28;20228;-79
2020/12/05 05:27:33;;;;;;;38.77;30.60;;;1.30;99.90;;;1.86;93.61;95964.63;5249012;28;20233;-79
2020/12/05 05:30:08;;;;;;;38.83;29.40;;;1.30;99.90;;;1.87;93.99;95975.56;5253479;28;20209;-79
2020/12/05 05:32:45;;;;;;;38.23;29.27;;;1.30;99.90;;;1.88;94.29;95994.91;5250503;28;20689;-79
2020/12/05 05:35:17;;;;;;;38.13;28.87;;;1.30;99.90;;;1.91;94.54;95992.56;5263501;28;20689;-79
2020/12/05 05:37:49;;;;;;;38.63;29.47;;;1.40;99.90;;;1.94;94.77;96010.38;5266999;28;20205;-79
2020/12/05 05:40:26;;;;;;;36.83;30.03;;;1.30;99.90;;;1.99;94.49;96021.63;5270256;28;20304;-78
2020/12/05 05:42:59;;;;;;;36.33;30.73;;;1.40;99.90;;;1.98;94.78;96024.91;5261017;28;20225;-79
2020/12/05 05:45:31;;;;;;;35.77;29.30;;;1.30;99.90;;;1.97;94.74;96025.69;5263217;28;20200;-78
2020/12/05 05:48:04;;;;;;;37.70;29.23;;;1.30;99.90;;;1.98;94.34;96035.88;5262291;28;20218;-79
2020/12/05 05:50:38;;;;;;;37.63;29.47;;;1.30;99.90;;;1.99;94.24;96042.63;5265549;28;20196;-79
2020/12/05 05:53:21;;;;;;;36.20;28.43;;;1.30;99.90;;;1.97;94.61;96059.28;5268912;28;20227;-80
2020/12/05 05:55:53;;;;;;;34.70;28.97;;;1.30;99.90;;;2.00;95.05;96058.59;5268915;28;20280;-78
2020/12/05 05:58:26;;;;;;;34.80;28.00;;;1.30;99.90;;;2.02;95.00;96049.50;5266083;28;20192;-79
2020/12/05 06:01:02;;;;;;;40.23;29.70;;;1.40;99.90;;;2.00;94.74;96033.41;5263125;28;20672;-79
2020/12/05 06:03:48;;;;;;;36.97;29.43;;;1.40;99.90;;;2.02;95.14;96034.38;5260649;28;20222;-79
2020/12/05 06:06:20;;;;;;;42.10;32.40;;;1.40;99.90;;;2.05;95.91;96041.25;5256710;28;20212;-79
2020/12/05 06:08:52;;;;;;;36.80;29.87;;;1.40;99.90;;;2.05;95.28;96044.66;5258795;28;20312;-78
2020/12/05 06:11:25;;;;;;;40.33;32.60;;;1.40;99.90;;;2.10;96.07;96055.00;5259980;28;20638;-79
2020/12/05 06:14:01;;;;;;;35.23;29.77;;;1.50;99.90;;;2.11;96.14;96062.66;5249095;28;20221;-78
2020/12/05 06:16:33;;;;;;;34.70;27.33;;;1.40;99.90;;;2.12;96.12;96054.31;5252277;28;20298;-80
2020/12/05 06:19:05;;;;;;;34.57;27.60;;;1.50;99.90;;;2.17;96.40;96044.50;5256669;28;20195;-78
2020/12/05 06:21:41;;;;;;;33.93;26.67;;;1.50;99.90;;;2.13;96.16;96038.41;5263735;28;20196;-79
2020/12/05 06:24:14;;;;;;;30.27;26.70;;;1.40;99.90;;;2.14;96.20;96051.88;5259014;28;20633;-78
2020/12/05 06:26:49;;;;;;;36.77;28.63;;;1.40;99.90;;;2.21;96.50;96070.00;5263225;28;20226;-78
2020/12/05 06:29:22;;;;;;;30.67;26.80;;;1.50;99.90;;;2.16;95.66;96089.00;5268860;28;20203;-80
2020/12/05 06:31:54;;;;;;;32.77;25.20;;;1.40;99.90;;;2.11;95.79;96077.75;5262728;28;20202;-79
2020/12/05 06:34:40;;;;;;;31.43;27.00;;;1.40;99.90;;;2.13;95.84;96078.75;5257750;28;20215;-80
2020/12/05 06:37:31;;;;;;;31.40;25.67;;;1.40;99.90;;;2.13;96.74;96101.41;5268472;28;20578;-79
2020/12/05 06:40:05;;;;;;;34.57;27.87;;;1.40;99.90;;;2.15;96.27;96106.56;5265160;28;20198;-79
2020/12/05 06:42:39;;;;;;;30.70;26.90;;;1.40;99.90;;;2.19;96.70;96116.03;5267021;28;20207;-79
2020/12/05 06:45:41;;;;;;;29.57;25.47;;;1.40;99.90;;;2.21;96.82;96133.00;5267736;28;20203;-79
2020/12/05 06:48:34;;;;;;;30.80;25.10;;;1.50;99.90;;;2.23;96.56;96138.09;5268172;28;20223;-80
2020/12/05 06:51:22;;;;;;;29.20;24.30;;;1.50;99.90;;;2.27;97.06;96126.59;5257462;28;20206;-80
2020/12/05 06:53:54;;;;;;;26.33;23.47;;;1.50;99.90;;;2.19;96.98;96121.06;5255390;28;20224;-80
2020/12/05 06:56:26;;;;;;;30.13;25.57;;;1.40;99.90;;;2.19;97.00;96139.56;5267555;28;20198;-80
2020/12/05 06:58:58;;;;;;;28.90;24.70;;;1.50;99.90;;;2.19;96.31;96132.03;5266151;28;20227;-80
2020/12/05 07:01:31;;;;;;;29.90;25.13;;;1.40;99.90;;;2.18;96.16;96124.38;5260488;28;20195;-80
2020/12/05 07:04:20;;;;;;;26.40;22.80;;;1.40;99.90;;;2.17;97.25;96123.47;5255448;28;20319;-79
2020/12/05 07:06:52;;;;;;;27.40;23.57;;;1.40;99.90;;;2.15;96.90;96132.63;5253871;28;20197;-80
2020/12/05 07:09:44;;;;;;;28.63;24.73;;;1.40;99.90;;;2.14;96.85;96151.03;5247919;28;20582;-79
2020/12/05 07:12:18;;;;;;;28.67;24.03;;;1.40;99.90;;;2.14;97.00;96173.69;5265089;28;20199;-78
2020/12/05 07:14:49;;;;;;;50.60;38.67;;;1.40;99.90;;;2.14;96.42;96171.19;5267497;28;20307;-80
2020/12/05 07:17:22;;;;;;;45.40;36.47;;;1.30;99.90;;;2.15;96.38;96165.38;5265137;28;20205;-80
2020/12/05 07:19:54;;;;;;;39.20;32.67;;;1.30;99.90;;;2.10;96.50;96161.72;5255857;28;20197;-80
2020/12/05 07:22:26;;;;;;;41.57;33.53;;;1.30;99.90;;;2.11;96.51;96147.44;5257761;28;20294;-79
2020/12/05 07:25:00;;;;;;;37.53;30.03;;;1.30;99.90;;;2.05;96.16;96137.88;5247735;28;20711;-79
2020/12/05 07:27:32;;;;;;;37.57;29.77;;;1.20;99.90;;;2.03;96.63;96135.28;5251362;28;20229;-79
2020/12/05 07:30:05;;;;;;;33.33;28.83;;;1.30;99.90;;;2.07;96.70;96146.41;5265984;28;20202;-79
2020/12/05 07:32:41;;;;;;;37.47;30.00;;;1.20;99.90;;;2.13;96.32;96144.25;5260953;28;20192;-79
2020/12/05 07:35:16;;;;;;;33.93;29.90;;;1.30;99.90;;;2.07;96.10;96161.53;5255670;28;20204;-79
2020/12/05 07:37:48;;;;;;;32.00;27.13;;;1.20;99.90;;;2.07;96.00;96171.59;5270318;28;20198;-79
2020/12/05 07:40:27;;;;;;;29.10;24.37;;;1.20;99.90;;;2.00;96.10;96170.34;5260407;28;20212;-80
2020/12/05 07:42:59;;;;;;;26.90;24.00;;;1.20;99.90;;;2.01;96.56;96168.69;5262261;28;20231;-81
2020/12/05 07:45:31;;;;;;;27.10;23.23;;;1.20;99.90;;;2.03;96.75;96169.66;5268706;28;20197;-81
2020/12/05 07:48:12;;;;;;;25.70;22.60;;;1.20;99.90;;;2.05;96.53;96205.91;5268479;28;20229;-81
2020/12/05 07:50:45;;;;;;;26.83;23.37;;;1.20;99.90;;;2.12;96.88;96200.47;5264865;28;20208;-81
2020/12/05 07:53:32;;;;;;;32.00;26.10;;;1.20;99.90;;;2.07;95.65;96204.34;5257518;28;20224;-80
2020/12/05 07:56:13;;;;;;;34.87;27.57;;;1.20;99.90;;;1.99;95.41;96208.03;5251553;28;20192;-80
2020/12/05 07:58:50;;;;;;;32.83;26.30;;;1.20;99.90;;;1.95;96.27;96206.13;5251203;28;20281;-80
2020/12/05 08:01:38;;;;;;;31.00;25.70;;;1.20;99.90;;;2.00;96.18;96233.34;5261754;28;20195;-80
2020/12/05 08:04:36;;;;;;;34.10;27.27;;;1.20;99.90;;;2.03;96.59;96215.91;5265998;28;20220;-79
2020/12/05 08:07:37;;;;;;;32.63;26.40;;;1.20;99.90;;;2.11;96.34;96223.91;5250390;28;20230;-79
2020/12/05 08:10:11;;;;;;;32.13;25.97;;;1.30;99.90;;;2.06;96.66;96217.75;5256063;28;20209;-79
2020/12/05 08:13:16;;;;;;;29.13;24.60;;;1.30;99.90;;;2.11;95.88;96228.94;5271535;28;20198;-80
2020/12/05 08:15:52;;;;;;;25.10;22.37;;;1.30;99.90;;;2.18;96.43;96242.81;5258206;28;20290;-80
2020/12/05 08:18:27;;;;;;;27.73;23.37;;;1.30;99.90;;;2.20;94.76;96238.72;5263028;28;20221;-80
2020/12/05 08:21:01;;;;;;;25.77;22.67;;;1.30;99.90;;;2.08;94.90;96246.41;5266158;28;20669;-80
2020/12/05 08:23:37;;;;;;;23.00;20.50;;;1.20;99.90;;;2.07;94.53;96252.22;5268183;28;20229;-79
2020/12/05 08:26:14;;;;;;;23.90;21.03;;;1.20;99.90;;;2.07;95.15;96236.25;5264317;28;20200;-78
2020/12/05 08:28:49;;;;;;;26.53;22.43;;;1.30;99.90;;;2.07;95.27;96246.31;5265968;28;20218;-80
2020/12/05 08:31:21;;;;;;;28.10;23.10;;;1.30;99.90;;;2.13;95.56;96257.66;5255550;28;20204;-79
2020/12/05 08:33:53;;;;;;;28.00;23.93;;;1.30;99.90;;;2.22;95.71;96254.81;5262303;28;20600;-79
2020/12/05 08:36:31;;;;;;;22.83;20.40;;;1.40;99.90;;;2.35;96.10;96269.94;5248658;28;20203;-80
2020/12/05 08:39:06;;;;;;;22.90;19.80;;;1.50;99.90;;;2.30;95.38;96275.47;5266198;28;20194;-80
2020/12/05 08:41:44;;;;;;;22.43;19.40;;;1.40;99.90;;;2.33;95.05;96278.19;5269407;28;20202;-79
2020/12/05 08:44:18;;;;;;;21.70;19.40;;;1.50;99.90;;;2.34;94.55;96273.22;5269138;28;20306;-79
2020/12/05 08:47:01;;;;;;;26.37;22.50;;;1.40;99.90;;;2.32;94.51;96278.94;5266798;28;20213;-79
2020/12/05 08:49:38;;;;;;;26.67;21.80;;;1.50;99.90;;;2.38;95.05;96277.69;5266056;28;20246;-79
2020/12/05 08:52:12;;;;;;;24.73;21.97;;;1.60;99.90;;;2.43;95.24;96277.97;5269131;28;20191;-80
2020/12/05 08:54:46;;;;;;;26.87;22.60;;;1.60;99.90;;;2.37;94.94;96275.06;5261483;28;20221;-80
2020/12/05 08:57:19;;;;;;;24.03;21.23;;;1.60;99.90;;;2.37;94.88;96267.50;5259652;28;20204;-79
2020/12/05 09:00:00;;;;;;;24.50;21.13;;;1.60;99.90;;;2.40;94.55;96273.59;5269480;28;20677;-80
2020/12/05 09:02:35;;;;;;;25.23;20.67;;;1.60;99.90;;;2.46;95.17;96294.19;5256634;28;20230;-79
2020/12/05 09:05:07;;;;;;;21.90;19.57;;;1.70;99.90;;;2.49;95.19;96290.97;5257762;28;20588;-79
2020/12/05 09:07:40;;;;;;;21.20;19.10;;;1.70;99.90;;;2.54;95.29;96302.19;5255871;28;20231;-79
2020/12/05 09:10:16;;;;;;;22.67;20.37;;;1.70;99.90;;;2.48;95.54;96306.88;5253885;28;20703;-79
2020/12/05 09:12:48;;;;;;;22.80;20.13;;;1.70;99.90;;;2.57;95.52;96312.47;5267077;28;20205;-80
2020/12/05 09:15:20;;;;;;;26.23;22.03;;;1.80;99.90;;;2.62;95.85;96308.59;5268770;28;20197;-80
2020/12/05 09:17:56;;;;;;;26.60;22.63;;;1.80;99.90;;;2.73;96.07;96301.69;5267570;28;20509;-79
2020/12/05 09:20:29;;;;;;;22.40;20.00;;;1.90;99.90;;;2.85;96.08;96299.06;5268040;28;20192;-79
2020/12/05 09:23:02;;;;;;;22.27;20.00;;;2.00;99.90;;;2.84;95.58;96295.66;5263862;28;20226;-79
2020/12/05 09:25:37;;;;;;;22.03;19.73;;;2.00;99.90;;;2.92;95.70;96301.19;5264388;28;20204;-79
2020/12/05 09:28:12;;;;;;;20.67;18.57;;;2.10;99.90;;;2.93;95.59;96293.69;5249024;28;20618;-79
2020/12/05 09:30:44;;;;;;;20.57;18.47;;;2.10;99.90;;;2.98;95.67;96285.53;5257144;28;20226;-78
2020/12/05 09:33:17;;;;;;;18.27;16.57;;;2.10;99.90;;;3.01;95.97;96280.69;5261745;28;20215;-79
2020/12/05 09:35:49;;;;;;;18.87;16.97;;;2.10;99.90;;;3.04;96.38;96284.25;5269052;28;20306;-79
2020/12/05 09:38:22;;;;;;;19.13;17.33;;;2.10;99.90;;;3.08;96.26;96286.16;5268373;28;20201;-79
2020/12/05 09:40:54;;;;;;;20.10;17.90;;;2.20;99.90;;;3.07;95.94;96292.00;5252120;28;20207;-79
2020/12/05 09:43:26;;;;;;;20.00;17.77;;;2.10;99.90;;;3.09;95.72;96300.53;5263558;28;20215;-79
2020/12/05 09:45:59;;;;;;;20.07;17.97;;;2.10;99.90;;;3.09;95.47;96302.16;5262861;28;20201;-80
2020/12/05 09:48:31;;;;;;;23.47;21.17;;;2.10;99.90;;;3.13;94.67;96312.56;5264314;28;20211;-79
2020/12/05 09:51:03;;;;;;;21.23;18.97;;;2.10;99.90;;;3.09;94.93;96310.66;5267622;28;20191;-79
2020/12/05 09:53:36;;;;;;;22.10;18.30;;;2.10;99.90;;;3.12;94.44;96315.00;5270091;28;20212;-80
2020/12/05 09:56:08;;;;;;;20.20;18.20;;;2.20;99.90;;;3.14;95.50;96314.28;5267122;28;20682;-79
2020/12/05 09:58:40;;;;;;;19.43;17.50;;;2.20;99.90;;;3.16;95.33;96327.88;5262302;28;20574;-79
2020/12/05 10:01:12;;;;;;;20.60;18.63;;;2.20;99.90;;;3.21;95.29;96319.72;5265979;28;20202;-80
2020/12/05 10:03:44;;;;;;;18.73;16.93;;;2.30;99.90;;;3.17;93.49;96314.47;5268121;28;20212;-80
2020/12/05 10:06:16;;;;;;;20.30;18.30;;;2.20;99.90;;;3.10;93.20;96311.50;5259487;28;20196;-80
2020/12/05 10:08:49;;;;;;;20.53;18.33;;;2.10;99.90;;;3.13;93.77;96299.94;5267175;28;20230;-79
2020/12/05 10:11:21;;;;;;;21.60;19.40;;;2.20;99.90;;;3.15;93.87;96305.97;5247497;28;20196;-79
2020/12/05 10:13:53;;;;;;;21.60;19.30;;;2.20;99.90;;;3.12;93.30;96313.34;5257433;28;20224;-80
2020/12/05 10:16:25;;;;;;;22.00;19.80;;;2.20;99.90;;;3.19;93.92;96296.91;5263005;28;20207;-80
2020/12/05 10:18:57;;;;;;;22.80;20.00;;;2.30;99.90;;;3.14;93.53;96294.09;5251714;28;20270;-80
2020/12/05 10:21:29;;;;;;;31.07;24.47;;;2.20;99.90;;;3.12;92.62;96290.63;5250603;28;20215;-80
2020/12/05 10:24:03;;;;;;;26.73;23.47;;;2.30;99.90;;;3.17;93.30;96299.31;5260759;28;20223;-79
2020/12/05 10:26:35;;;;;;;31.13;23.30;;;2.30;99.90;;;3.25;93.43;96298.94;5259784;28;20593;-80
2020/12/05 10:29:07;;;;;;;23.40;21.00;;;2.30;99.90;;;3.30;93.29;96306.00;5259700;28;20591;-80
2020/12/05 10:31:44;;;;;;;24.50;20.43;;;2.30;99.90;;;3.31;93.67;96304.34;5265232;28;20196;-79
2020/12/05 10:34:17;;;;;;;22.67;20.27;;;2.30;99.90;;;3.36;93.93;96301.31;5270288;28;20224;-79
2020/12/05 10:36:50;;;;;;;26.07;23.37;;;2.40;99.90;;;3.38;93.99;96319.94;5264252;28;20206;-80
2020/12/05 10:39:23;;;;;;;24.43;21.87;;;2.40;99.90;;;3.37;93.72;96342.56;5266815;28;20188;-80
2020/12/05 10:41:56;;;;;;;23.83;21.53;;;2.40;99.90;;;3.39;93.90;96346.94;5265299;28;20245;-81
2020/12/05 10:44:28;;;;;;;23.70;21.37;;;2.50;99.90;;;3.45;94.17;96346.44;5252063;28;20299;-81
2020/12/05 10:47:01;;;;;;;24.10;21.67;;;2.50;99.90;;;3.48;93.73;96351.66;5258842;28;20196;-80
2020/12/05 10:49:33;;;;;;;22.03;19.77;;;2.50;99.90;;;3.50;93.78;96355.16;5262381;28;20296;-80